WetterOnline ( https://www.wetteronline.de )

Wetter aktuell Havelberg

Aktuelles Wetter: Kyritz (42m)

6-stündlich | Neueste Meldungen
Ortszeit Temperatur Wetter
So, 15.09. 8:00 7.9° C wolkig
So, 15.09. 2:00 6.1° C wolkig
Sa, 14.09. 20:00 13.1° C wolkig
Sa, 14.09. 14:00 18.0° C fast wolkenlos
Sa, 14.09. 8:00 6.4° C fast wolkenlos
Sa, 14.09. 2:00 9.3° C wolkenlos
Fr, 13.09. 20:00 15.6° C wolkig
Fr, 13.09. 14:00 19.5° C wolkig
Ortszeit Temperatur Wetter
So, 15.09. 11:30 18.2° C leicht bewölkt
So, 15.09. 11:20 18.2° C leicht bewölkt
So, 15.09. 11:10 17.8° C leicht bewölkt
So, 15.09. 11:00 17.0° C leicht bewölkt
So, 15.09. 10:50 17.0° C wolkig
So, 15.09. 10:40 17.1° C wolkig
So, 15.09. 10:30 16.6° C wolkig
So, 15.09. 10:00 14.9° C wolkig
So, 15.09. 9:30 12.8° C wolkig
So, 15.09. 9:00 11.4° C leicht bewölkt
So, 15.09. 8:30 9.9° C -
Ortszeit Relative Feuchte Sichtweite
So, 15.09. 8:00 86% 60 km
So, 15.09. 2:00 94% 45 km
Sa, 14.09. 20:00 66% 70 km
Sa, 14.09. 14:00 44% 50 km
Sa, 14.09. 8:00 97% 35 km
Sa, 14.09. 2:00 86% 55 km
Fr, 13.09. 20:00 65% 55 km
Fr, 13.09. 14:00 62% 70 km
Ortszeit Relative Feuchte Sichtweite
So, 15.09. 11:30 47% 40 km
So, 15.09. 11:20 47% -
So, 15.09. 11:10 48% -
So, 15.09. 11:00 49% 60 km
So, 15.09. 10:50 49% -
So, 15.09. 10:40 49% -
So, 15.09. 10:30 52% 60 km
So, 15.09. 10:00 60% 45 km
So, 15.09. 9:30 69% 45 km
So, 15.09. 9:00 74% 45 km
So, 15.09. 8:30 79% 55 km
Ortszeit Niederschlagsmenge Niederschlagsart
So, 15.09. 8:00 0.0 l/m2 in 12 Std. -
So, 15.09. 2:00 0.0 l/m2 in 6 Std. -
Sa, 14.09. 20:00 0.0 l/m2 in 12 Std. -
Sa, 14.09. 14:00 0.0 l/m2 in 6 Std. -
Sa, 14.09. 8:00 0.0 l/m2 in 12 Std. -
Sa, 14.09. 2:00 0.0 l/m2 in 6 Std. -
Fr, 13.09. 20:00 0.7 l/m2 in 12 Std. -
Fr, 13.09. 14:00 0.7 l/m2 in 6 Std. Regen
Ortszeit Niederschlagsmenge Niederschlagsart
So, 15.09. 11:30 0.0 l/m2 in 1 Std. -
So, 15.09. 11:20 keine Meldung -
So, 15.09. 11:10 keine Meldung -
So, 15.09. 11:00 0.0 l/m2 in 1 Std. -
So, 15.09. 10:50 keine Meldung -
So, 15.09. 10:40 keine Meldung -
So, 15.09. 10:30 0.0 l/m2 in 1 Std. -
So, 15.09. 10:00 0.0 l/m2 in 1 Std. -
So, 15.09. 9:30 0.0 l/m2 in 1 Std. -
So, 15.09. 9:00 0.0 l/m2 in 1 Std. -
So, 15.09. 8:30 0.0 l/m2 in 1 Std. -
Ortszeit Stärke Spitze Richtung
km/h Bft. km/h Grad Sektor
So, 15.09. 8:00 9 2 11 210° SW
So, 15.09. 2:00 7 2 11 170° S
Sa, 14.09. 20:00 2 1 24 30° NO
Sa, 14.09. 14:00 7 2 22 330° NW
Sa, 14.09. 8:00 4 1 11 260° W
Sa, 14.09. 2:00 7 2 14 290° W
Fr, 13.09. 20:00 6 1 46 330° NW
Fr, 13.09. 14:00 22 4 43 330° NW
Ortszeit Stärke Spitze Richtung
km/h Bft. km/h Grad Sektor
So, 15.09. 11:30 - - 37 - -
So, 15.09. 11:20 - - - - -
So, 15.09. 11:10 19 3 - 250° W
So, 15.09. 11:00 22 4 36 260° W
So, 15.09. 10:50 22 4 - 260° W
So, 15.09. 10:40 18 3 - 260° W
So, 15.09. 10:30 17 3 33 250° W
So, 15.09. 10:00 14 3 25 240° SW
So, 15.09. 9:30 19 3 24 230° SW
So, 15.09. 9:00 14 3 22 220° SW
So, 15.09. 8:30 7 2 13 210° SW
Ortszeit Untergrenze Bedeckung Gattung
total tief tief mittel hoch
So, 15.09. 8:00 7200 m 7/8 0/8 - - -
So, 15.09. 2:00 10500 m 8/8 0/8 - - -
Sa, 14.09. 20:00 10500 m 7/8 0/8 - - -
Sa, 14.09. 14:00 9000 m 2/8 0/8 - - -
Sa, 14.09. 8:00 7500 m 1/8 0/8 - - -
Sa, 14.09. 2:00 - 0/8 0/8 - - -
Fr, 13.09. 20:00 7200 m 8/8 0/8 - - -
Fr, 13.09. 14:00 810 m 5/8 5/8 - - -
Ortszeit Bedeckungsgrad in Achtel und Wolkenuntergrenze
So, 15.09. 11:30 2(7500m) 5(8400m)
So, 15.09. 11:20 2(7500m) 5(8400m)
So, 15.09. 11:10 4(8400m) 5(12000m)
So, 15.09. 11:00 7(8700m) 7(10500m)
So, 15.09. 10:50 7(8700m) 7(10500m)
So, 15.09. 10:40 5(8700m) 7(9000m) 7(10500m)
So, 15.09. 10:30 5(9000m) 8(9000m) 7(9000m)
So, 15.09. 10:00 1(8400m) 6(9000m) 8(9000m)
So, 15.09. 9:30 1(7800m) 6(9000m) 7(10500m)
So, 15.09. 9:00 1(8700m) 6(9000m) 8(10500m)
So, 15.09. 8:30 -
Ortszeit Luftdruck NN (hPa) Tendenz (hPa in 3 Std.)
So, 15.09. 8:00 1022 - 2,2
So, 15.09. 2:00 1027 - 2,5
Sa, 14.09. 20:00 1031 - 1,1
Sa, 14.09. 14:00 1033 - 1,6
Sa, 14.09. 8:00 1035 + 0,5
Sa, 14.09. 2:00 1034 + 0,8
Fr, 13.09. 20:00 1031 + 1,3
Fr, 13.09. 14:00 1029 + 2,3
Ortszeit Luftdruck NN (hPa) Tendenz (hPa in 3 Std.)
So, 15.09. 11:30 1020 - 1,7
So, 15.09. 11:20 1020 keine Meldung
So, 15.09. 11:10 1020 keine Meldung
So, 15.09. 11:00 1020 - 1,3
So, 15.09. 10:50 1020 keine Meldung
So, 15.09. 10:40 1020 keine Meldung
So, 15.09. 10:30 1021 - 1,6
So, 15.09. 10:00 1021 - 1,8
So, 15.09. 9:30 1021 - 1,5
So, 15.09. 9:00 1022 - 1,4
So, 15.09. 8:30 1022 - 1,8
Ortszeit Schneehöhe (cm)
So, 15.09. 8:00 -
So, 15.09. 2:00 -
Sa, 14.09. 20:00 -
Sa, 14.09. 14:00 -
Sa, 14.09. 8:00 -
Sa, 14.09. 2:00 -
Fr, 13.09. 20:00 -
Fr, 13.09. 14:00 -
Ortszeit Schneehöhe (cm)
So, 15.09. 11:30 -
So, 15.09. 11:20 -
So, 15.09. 11:10 -
So, 15.09. 11:00 -
So, 15.09. 10:50 -
So, 15.09. 10:40 -
So, 15.09. 10:30 -
So, 15.09. 10:00 -
So, 15.09. 9:30 -
So, 15.09. 9:00 -
So, 15.09. 8:30 -
Link zu dieser Seite / Seite empfehlen

Das Wetter in ...